createdAt,value
2023-04-20T00:00:45.919Z,504.00
2023-04-20T00:01:45.976Z,504.00
2023-04-20T00:02:46.056Z,502.00
2023-04-20T00:03:46.129Z,507.00
2023-04-20T00:04:46.024Z,501.00
2023-04-20T00:05:46.017Z,505.00
2023-04-20T00:06:46.109Z,513.00
2023-04-20T00:07:46.087Z,509.00
2023-04-20T00:08:46.155Z,508.00
2023-04-20T00:09:46.133Z,502.00
2023-04-20T00:10:46.135Z,510.00
2023-04-20T00:11:46.144Z,509.00
2023-04-20T00:12:46.244Z,511.00
2023-04-20T00:13:46.190Z,504.00
2023-04-20T00:14:46.213Z,506.00
2023-04-20T00:15:46.236Z,504.00
2023-04-20T00:16:46.278Z,505.00
2023-04-20T00:17:47.165Z,506.00
2023-04-20T00:18:46.332Z,507.00
2023-04-20T00:19:46.392Z,509.00
2023-04-20T00:20:46.376Z,507.00
2023-04-20T00:21:46.400Z,506.00
2023-04-20T00:22:46.476Z,503.00
2023-04-20T00:23:46.449Z,508.00
2023-04-20T00:24:46.497Z,510.00
2023-04-20T00:25:46.549Z,508.00
2023-04-20T00:26:46.525Z,507.00
2023-04-20T00:27:46.555Z,507.00
2023-04-20T00:28:46.565Z,500.00
2023-04-20T00:29:46.598Z,508.00
2023-04-20T00:30:46.641Z,508.00
2023-04-20T00:31:46.638Z,509.00
2023-04-20T00:32:46.760Z,508.00
2023-04-20T00:33:46.696Z,506.00
2023-04-20T00:34:46.722Z,507.00
2023-04-20T00:35:46.745Z,506.00
2023-04-20T00:36:46.777Z,504.00
2023-04-20T00:37:46.809Z,502.00
2023-04-20T00:38:46.842Z,503.00
2023-04-20T00:39:46.869Z,500.00
2023-04-20T00:40:46.888Z,505.00
2023-04-20T00:41:46.920Z,503.00
2023-04-20T00:42:46.960Z,508.00
2023-04-20T00:43:46.983Z,503.00
2023-04-20T00:44:47.000Z,504.00
2023-04-20T00:45:47.130Z,506.00
2023-04-20T00:46:47.064Z,503.00
2023-04-20T00:47:47.131Z,503.00
2023-04-20T00:48:47.125Z,504.00
2023-04-20T00:49:47.174Z,506.00
2023-04-20T00:50:47.174Z,505.00
2023-04-20T00:51:47.203Z,502.00
2023-04-20T00:52:48.242Z,501.00
2023-04-20T00:53:47.253Z,506.00
2023-04-20T00:54:47.284Z,508.00
2023-04-20T00:55:47.323Z,507.00
2023-04-20T00:56:47.346Z,508.00
2023-04-20T00:57:47.374Z,503.00
2023-04-20T00:58:47.419Z,503.00
2023-04-20T00:59:47.431Z,506.00
2023-04-20T01:00:47.462Z,507.00
2023-04-20T01:01:47.550Z,509.00
2023-04-20T01:02:47.621Z,505.00
2023-04-20T01:03:47.867Z,509.00
2023-04-20T01:04:47.587Z,507.00
2023-04-20T01:05:47.642Z,505.00
2023-04-20T01:06:47.659Z,508.00
2023-04-20T01:07:47.678Z,509.00
2023-04-20T01:08:47.724Z,507.00
2023-04-20T01:09:47.744Z,506.00
2023-04-20T01:10:47.852Z,505.00
2023-04-20T01:11:47.814Z,503.00
2023-04-20T01:12:47.831Z,504.00
2023-04-20T01:13:47.868Z,505.00
2023-04-20T01:14:47.903Z,508.00
2023-04-20T01:15:48.015Z,507.00
2023-04-20T01:16:47.954Z,509.00
2023-04-20T01:17:47.993Z,509.00
2023-04-20T01:18:48.010Z,510.00
2023-04-20T01:19:48.023Z,506.00
2023-04-20T01:20:48.062Z,504.00
2023-04-20T01:21:48.077Z,506.00
2023-04-20T01:22:48.102Z,505.00
2023-04-20T01:23:48.124Z,507.00
2023-04-20T01:24:48.151Z,504.00
2023-04-20T01:25:48.191Z,505.00
2023-04-20T01:26:48.236Z,511.00
2023-04-20T01:27:48.226Z,509.00
2023-04-20T01:28:48.251Z,509.00
2023-04-20T01:29:48.268Z,506.00
2023-04-20T01:30:48.295Z,509.00
2023-04-20T01:31:48.383Z,505.00
2023-04-20T01:32:48.374Z,507.00
2023-04-20T01:33:48.684Z,505.00
2023-04-20T01:34:48.381Z,505.00
2023-04-20T01:35:48.408Z,508.00
2023-04-20T01:36:48.473Z,504.00
2023-04-20T01:37:48.436Z,505.00
2023-04-20T01:38:48.462Z,502.00
2023-04-20T01:39:48.513Z,502.00
2023-04-20T01:40:48.508Z,506.00
2023-04-20T01:41:48.529Z,502.00
2023-04-20T01:42:48.556Z,504.00
2023-04-20T01:43:48.580Z,503.00
2023-04-20T01:44:48.596Z,504.00
2023-04-20T01:45:48.620Z,503.00
2023-04-20T01:46:48.678Z,503.00
2023-04-20T01:47:48.776Z,502.00
2023-04-20T01:48:48.670Z,506.00
2023-04-20T01:49:48.685Z,503.00
2023-04-20T01:50:48.695Z,504.00
2023-04-20T01:51:48.720Z,502.00
2023-04-20T01:52:48.747Z,500.00
2023-04-20T01:53:48.770Z,506.00
2023-04-20T01:54:48.772Z,505.00
2023-04-20T01:55:48.791Z,508.00
2023-04-20T01:56:48.822Z,505.00
2023-04-20T01:57:48.857Z,502.00
2023-04-20T01:58:48.888Z,502.00
2023-04-20T01:59:48.874Z,498.00
2023-04-20T02:00:48.900Z,508.00
2023-04-20T02:01:48.920Z,510.00
2023-04-20T02:02:49.074Z,505.00
2023-04-20T02:03:49.359Z,505.00
2023-04-20T02:04:49.009Z,503.00
2023-04-20T02:05:48.979Z,501.00
2023-04-20T02:06:49.028Z,505.00
2023-04-20T02:07:49.015Z,503.00
2023-04-20T02:08:49.060Z,506.00
2023-04-20T02:09:49.051Z,502.00
2023-04-20T02:10:49.063Z,504.00
2023-04-20T02:11:49.078Z,503.00
2023-04-20T02:12:49.094Z,503.00
2023-04-20T02:13:49.121Z,508.00
2023-04-20T02:14:49.716Z,503.00
2023-04-20T02:15:49.162Z,502.00
2023-04-20T02:16:49.183Z,504.00
2023-04-20T02:17:49.224Z,500.00
2023-04-20T02:18:49.208Z,501.00
2023-04-20T02:19:50.225Z,514.00
2023-04-20T02:20:49.250Z,506.00
2023-04-20T02:21:49.298Z,510.00
2023-04-20T02:22:49.312Z,508.00
2023-04-20T02:23:49.335Z,507.00
2023-04-20T02:24:49.345Z,509.00
2023-04-20T02:25:49.363Z,509.00
2023-04-20T02:26:49.376Z,510.00
2023-04-20T02:27:49.479Z,512.00
2023-04-20T02:28:49.714Z,509.00
2023-04-20T02:29:49.432Z,511.00
2023-04-20T02:30:49.587Z,510.00
2023-04-20T02:31:49.511Z,507.00
2023-04-20T02:32:49.519Z,511.00
2023-04-20T02:33:49.561Z,510.00
2023-04-20T02:34:49.513Z,507.00
2023-04-20T02:35:49.538Z,500.00
2023-04-20T02:36:49.547Z,509.00
2023-04-20T02:37:49.569Z,505.00
2023-04-20T02:38:49.718Z,506.00
2023-04-20T02:39:49.670Z,501.00
2023-04-20T02:40:49.606Z,501.00
2023-04-20T02:41:49.719Z,508.00
2023-04-20T02:42:49.760Z,506.00
2023-04-20T02:43:49.712Z,504.00
2023-04-20T02:44:49.741Z,502.00
2023-04-20T02:45:49.749Z,505.00
2023-04-20T02:46:49.921Z,506.00
2023-04-20T02:47:49.800Z,500.00
2023-04-20T02:48:49.820Z,506.00
2023-04-20T02:49:50.721Z,504.00
2023-04-20T02:50:49.948Z,506.00
2023-04-20T02:51:49.909Z,507.00
2023-04-20T02:52:49.952Z,500.00
2023-04-20T02:53:49.999Z,505.00
2023-04-20T02:54:50.006Z,501.00
2023-04-20T02:55:52.723Z,506.00
2023-04-20T02:56:50.027Z,508.00
2023-04-20T02:57:50.064Z,509.00
2023-04-20T02:58:50.067Z,507.00
2023-04-20T02:59:50.078Z,510.00
2023-04-20T03:00:50.101Z,502.00
2023-04-20T03:01:50.152Z,511.00
2023-04-20T03:02:50.228Z,506.00
2023-04-20T03:03:50.218Z,505.00
2023-04-20T03:04:50.189Z,504.00
2023-04-20T03:05:50.147Z,503.00
2023-04-20T03:06:50.155Z,508.00
2023-04-20T03:07:50.175Z,503.00
2023-04-20T03:08:50.176Z,507.00
2023-04-20T03:09:50.190Z,503.00
2023-04-20T03:10:50.204Z,507.00
2023-04-20T03:11:50.227Z,503.00
2023-04-20T03:12:50.235Z,508.00
2023-04-20T03:13:50.256Z,503.00
2023-04-20T03:14:50.268Z,506.00
2023-04-20T03:15:50.381Z,507.00
2023-04-20T03:16:50.377Z,507.00
2023-04-20T03:17:50.325Z,502.00
2023-04-20T03:18:50.299Z,507.00
2023-04-20T03:19:50.299Z,506.00
2023-04-20T03:20:50.317Z,504.00
2023-04-20T03:21:50.308Z,508.00
2023-04-20T03:22:50.327Z,507.00
2023-04-20T03:23:50.337Z,505.00
2023-04-20T03:24:52.916Z,509.00
2023-04-20T03:25:50.330Z,510.00
2023-04-20T03:26:50.339Z,510.00
2023-04-20T03:27:50.402Z,510.00
2023-04-20T03:28:50.408Z,506.00
2023-04-20T03:29:50.358Z,509.00
2023-04-20T03:30:50.368Z,504.00
2023-04-20T03:31:50.393Z,510.00
2023-04-20T03:32:50.423Z,508.00
2023-04-20T03:33:50.402Z,509.00
2023-04-20T03:34:50.447Z,507.00
2023-04-20T03:35:50.409Z,508.00
2023-04-20T03:36:50.415Z,506.00
2023-04-20T03:37:50.421Z,503.00
2023-04-20T03:38:50.443Z,505.00
2023-04-20T03:39:50.450Z,500.00
2023-04-20T03:40:50.470Z,507.00
2023-04-20T03:41:50.529Z,503.00
2023-04-20T03:42:50.479Z,510.00
2023-04-20T03:43:50.476Z,507.00
2023-04-20T03:44:50.487Z,508.00
2023-04-20T03:45:50.496Z,506.00
2023-04-20T03:46:50.496Z,503.00
2023-04-20T03:47:50.568Z,507.00
2023-04-20T03:48:50.529Z,505.00
2023-04-20T03:49:50.541Z,509.00
2023-04-20T03:50:50.562Z,508.00
2023-04-20T03:51:51.231Z,507.00
2023-04-20T03:52:50.583Z,507.00
2023-04-20T03:53:50.593Z,504.00
2023-04-20T03:54:50.603Z,502.00
2023-04-20T03:55:50.608Z,505.00
2023-04-20T03:56:50.624Z,504.00
2023-04-20T03:57:51.238Z,501.00
2023-04-20T03:58:50.643Z,506.00
2023-04-20T03:59:50.645Z,505.00
2023-04-20T04:00:50.664Z,505.00
2023-04-20T04:01:50.761Z,506.00
2023-04-20T04:02:50.832Z,506.00
2023-04-20T04:03:51.038Z,504.00
2023-04-20T04:04:50.782Z,504.00
2023-04-20T04:05:50.673Z,506.00
2023-04-20T04:06:50.679Z,503.00
2023-04-20T04:07:50.692Z,507.00
2023-04-20T04:08:50.708Z,502.00
2023-04-20T04:09:50.713Z,501.00
2023-04-20T04:10:50.710Z,504.00
2023-04-20T04:11:50.720Z,504.00
2023-04-20T04:12:50.732Z,502.00
2023-04-20T04:13:50.730Z,503.00
2023-04-20T04:14:50.754Z,506.00
2023-04-20T04:15:50.751Z,502.00
2023-04-20T04:16:50.786Z,500.00
2023-04-20T04:17:50.837Z,504.00
2023-04-20T04:18:50.751Z,501.00
2023-04-20T04:19:50.761Z,505.00
2023-04-20T04:20:50.768Z,506.00
2023-04-20T04:21:50.785Z,504.00
2023-04-20T04:22:50.788Z,503.00
2023-04-20T04:23:50.873Z,503.00
2023-04-20T04:24:50.804Z,502.00
2023-04-20T04:25:50.815Z,507.00
2023-04-20T04:26:50.892Z,503.00
2023-04-20T04:27:50.825Z,503.00
2023-04-20T04:28:50.847Z,500.00
2023-04-20T04:29:50.844Z,507.00
2023-04-20T04:30:50.846Z,507.00
2023-04-20T04:31:50.903Z,502.00
2023-04-20T04:32:50.926Z,502.00
2023-04-20T04:33:50.871Z,506.00
2023-04-20T04:34:50.889Z,504.00
2023-04-20T04:35:50.936Z,505.00
2023-04-20T04:36:50.904Z,500.00
2023-04-20T04:37:50.907Z,506.00
2023-04-20T04:38:50.913Z,504.00
2023-04-20T04:39:50.918Z,502.00
2023-04-20T04:40:50.923Z,500.00
2023-04-20T04:41:50.923Z,504.00
2023-04-20T04:42:51.754Z,503.00
2023-04-20T04:43:50.944Z,502.00
2023-04-20T04:44:51.765Z,504.00
2023-04-20T04:45:50.971Z,507.00
2023-04-20T04:46:50.979Z,508.00
2023-04-20T04:47:50.986Z,504.00
2023-04-20T04:48:50.981Z,503.00
2023-04-20T04:49:50.981Z,508.00
2023-04-20T04:50:50.998Z,502.00
2023-04-20T04:51:51.012Z,503.00
2023-04-20T04:52:51.025Z,504.00
2023-04-20T04:53:51.052Z,504.00
2023-04-20T04:54:51.040Z,502.00
2023-04-20T04:55:51.049Z,503.00
2023-04-20T04:56:51.057Z,504.00
2023-04-20T04:57:51.070Z,506.00
2023-04-20T04:58:51.106Z,502.00
2023-04-20T04:59:51.102Z,501.00
2023-04-20T05:00:51.101Z,503.00
2023-04-20T05:01:51.110Z,506.00
2023-04-20T05:02:51.294Z,505.00
2023-04-20T05:03:51.318Z,505.00
2023-04-20T05:04:51.149Z,503.00
2023-04-20T05:05:51.158Z,501.00
2023-04-20T05:06:51.159Z,503.00
2023-04-20T05:07:51.167Z,509.00
2023-04-20T05:08:51.183Z,506.00
2023-04-20T05:09:51.187Z,506.00
2023-04-20T05:10:51.205Z,504.00
2023-04-20T05:11:51.292Z,505.00
2023-04-20T05:12:51.214Z,504.00
2023-04-20T05:13:51.236Z,500.00
2023-04-20T05:14:51.241Z,504.00
2023-04-20T05:15:51.296Z,505.00
2023-04-20T05:16:51.261Z,506.00
2023-04-20T05:17:51.342Z,506.00
2023-04-20T05:18:51.302Z,502.00
2023-04-20T05:19:51.308Z,500.00
2023-04-20T05:20:51.309Z,502.00
2023-04-20T05:21:51.328Z,500.00
2023-04-20T05:22:51.337Z,504.00
2023-04-20T05:23:51.348Z,502.00
2023-04-20T05:24:51.363Z,502.00
2023-04-20T05:25:51.371Z,505.00
2023-04-20T05:26:51.415Z,506.00
2023-04-20T05:27:51.488Z,511.00
2023-04-20T05:28:51.585Z,523.00
2023-04-20T05:29:51.657Z,535.00
2023-04-20T05:30:51.727Z,533.00
2023-04-20T05:31:51.849Z,546.00
2023-04-20T05:32:52.827Z,564.00
2023-04-20T05:33:51.937Z,563.00
2023-04-20T05:34:51.996Z,580.00
2023-04-20T05:35:52.045Z,589.00
2023-04-20T05:36:52.085Z,595.00
2023-04-20T05:37:52.097Z,609.00
2023-04-20T05:38:52.133Z,625.00
2023-04-20T05:39:52.151Z,634.00
2023-04-20T05:40:52.231Z,646.00
2023-04-20T05:41:52.187Z,661.00
2023-04-20T05:42:52.213Z,672.00
2023-04-20T05:43:52.230Z,699.00
2023-04-20T05:44:52.279Z,725.00
2023-04-20T05:45:52.259Z,758.00
2023-04-20T05:46:52.243Z,806.00
2023-04-20T05:47:52.284Z,831.00
2023-04-20T05:48:52.267Z,863.00
2023-04-20T05:49:52.269Z,875.00
2023-04-20T05:50:53.268Z,877.00
2023-04-20T05:51:52.272Z,887.00
2023-04-20T05:52:52.267Z,908.00
2023-04-20T05:53:52.269Z,946.00
2023-04-20T05:54:52.263Z,1051.00
2023-04-20T05:55:52.350Z,1107.00
2023-04-20T05:56:52.253Z,1124.00
2023-04-20T05:57:52.449Z,1171.00
2023-04-20T05:58:52.262Z,1166.00
2023-04-20T05:59:52.329Z,1209.00
2023-04-20T06:00:52.254Z,1229.00
2023-04-20T06:01:52.268Z,1266.00
2023-04-20T06:02:52.323Z,1293.00
2023-04-20T06:03:52.387Z,1303.00
2023-04-20T06:04:52.325Z,1329.00
2023-04-20T06:05:52.244Z,1362.00
2023-04-20T06:06:52.232Z,1382.00
2023-04-20T06:07:52.224Z,1403.00
2023-04-20T06:08:52.235Z,1416.00
2023-04-20T06:09:52.220Z,1447.00
2023-04-20T06:10:52.211Z,1468.00
2023-04-20T06:11:52.231Z,1479.00
2023-04-20T06:12:52.200Z,1509.00
2023-04-20T06:13:52.200Z,1526.00
2023-04-20T06:14:52.180Z,1565.00
2023-04-20T06:15:52.215Z,1575.00
2023-04-20T06:16:52.159Z,1579.00
2023-04-20T06:17:52.207Z,1587.00
2023-04-20T06:18:52.155Z,1623.00
2023-04-20T06:19:52.189Z,1654.00
2023-04-20T06:20:52.305Z,1652.00
2023-04-20T06:21:52.266Z,1682.00
2023-04-20T06:22:52.340Z,1707.00
2023-04-20T06:23:52.283Z,1687.00
2023-04-20T06:24:52.278Z,1699.00
2023-04-20T06:25:52.284Z,1674.00
2023-04-20T06:26:52.415Z,1694.00
2023-04-20T06:27:53.026Z,1706.00
2023-04-20T06:28:52.454Z,1730.00
2023-04-20T06:29:52.524Z,1741.00
2023-04-20T06:30:52.613Z,1754.00
2023-04-20T06:31:52.704Z,1766.00
2023-04-20T06:32:52.726Z,1779.00
2023-04-20T06:33:52.703Z,1790.00
2023-04-20T06:34:52.814Z,1804.00
2023-04-20T06:35:52.780Z,1825.00
2023-04-20T06:36:53.730Z,1829.00
2023-04-20T06:37:52.856Z,1841.00
2023-04-20T06:38:52.903Z,1880.00
2023-04-20T06:39:52.925Z,1896.00
2023-04-20T06:40:52.962Z,1901.00
2023-04-20T06:41:52.996Z,1923.00
2023-04-20T06:42:53.030Z,1937.00
2023-04-20T06:43:53.071Z,1970.00
2023-04-20T06:44:53.091Z,1952.00
2023-04-20T06:45:53.199Z,1984.00
2023-04-20T06:46:53.184Z,1997.00
2023-04-20T06:47:53.214Z,1996.00
2023-04-20T06:48:54.231Z,2024.00
2023-04-20T06:49:53.217Z,2045.00
2023-04-20T06:50:53.227Z,2063.00
2023-04-20T06:51:53.245Z,2054.00
2023-04-20T06:52:53.346Z,2086.00
2023-04-20T06:53:53.282Z,2084.00
2023-04-20T06:54:53.290Z,2112.00
2023-04-20T06:55:53.310Z,2120.00
2023-04-20T06:56:53.310Z,2146.00
2023-04-20T06:57:53.320Z,2132.00
2023-04-20T06:58:53.334Z,2146.00
2023-04-20T06:59:53.341Z,2160.00
2023-04-20T07:00:53.355Z,2170.00
2023-04-20T07:01:53.379Z,2158.00
2023-04-20T07:02:53.509Z,2185.00
2023-04-20T07:03:53.550Z,2190.00
2023-04-20T07:04:53.431Z,2196.00
2023-04-20T07:05:53.434Z,2201.00
2023-04-20T07:06:54.146Z,2200.00
2023-04-20T07:07:53.390Z,2241.00
2023-04-20T07:08:53.390Z,2257.00
2023-04-20T07:09:53.395Z,2270.00
2023-04-20T07:10:53.402Z,2280.00
2023-04-20T07:11:53.425Z,2301.00
2023-04-20T07:12:53.413Z,2279.00
2023-04-20T07:13:53.425Z,2307.00
2023-04-20T07:14:53.423Z,2330.00
2023-04-20T07:15:53.542Z,2387.00
2023-04-20T07:16:53.539Z,2357.00
2023-04-20T07:17:53.491Z,2355.00
2023-04-20T07:18:53.469Z,2329.00
2023-04-20T07:19:53.470Z,2341.00
2023-04-20T07:20:53.497Z,2234.00
2023-04-20T07:21:53.557Z,1685.00
2023-04-20T07:22:54.243Z,1730.00
2023-04-20T07:23:54.316Z,1911.00
2023-04-20T07:24:53.536Z,1952.00
2023-04-20T07:25:53.543Z,1898.00
2023-04-20T07:26:53.528Z,1826.00
2023-04-20T07:27:53.532Z,1796.00
2023-04-20T07:28:53.548Z,1787.00
2023-04-20T07:29:53.564Z,1781.00
2023-04-20T07:30:53.635Z,1775.00
2023-04-20T07:31:54.056Z,1793.00
2023-04-20T07:32:53.764Z,1779.00
2023-04-20T07:33:53.768Z,1795.00
2023-04-20T07:34:53.807Z,1796.00
2023-04-20T07:35:53.836Z,1801.00
2023-04-20T07:36:53.869Z,1806.00
2023-04-20T07:37:53.891Z,1823.00
2023-04-20T07:38:53.951Z,1840.00
2023-04-20T07:39:53.952Z,1853.00
2023-04-20T07:40:53.990Z,1874.00
2023-04-20T07:41:54.013Z,1869.00
2023-04-20T07:42:54.049Z,1879.00
2023-04-20T07:43:54.084Z,1898.00
2023-04-20T07:44:54.109Z,1899.00
2023-04-20T07:45:54.165Z,1928.00
2023-04-20T07:46:54.177Z,1942.00
2023-04-20T07:47:54.313Z,1950.00
2023-04-20T07:48:54.169Z,1967.00
2023-04-20T07:49:54.176Z,1959.00
2023-04-20T07:50:54.204Z,1999.00
2023-04-20T07:51:56.921Z,1994.00
2023-04-20T07:52:55.167Z,1995.00
2023-04-20T07:53:54.137Z,2000.00
2023-04-20T07:54:54.112Z,2014.00
2023-04-20T07:55:54.119Z,2022.00
2023-04-20T07:56:54.086Z,2047.00
2023-04-20T07:57:54.060Z,2050.00
2023-04-20T07:58:54.766Z,2073.00
2023-04-20T07:59:54.043Z,2099.00
2023-04-20T08:00:53.993Z,2108.00
2023-04-20T08:01:56.293Z,2115.00
2023-04-20T08:02:54.138Z,2122.00
2023-04-20T08:03:54.179Z,2120.00
2023-04-20T08:04:55.080Z,2132.00
2023-04-20T08:05:53.886Z,2145.00
2023-04-20T08:06:53.917Z,2164.00
2023-04-20T08:07:53.866Z,2178.00
2023-04-20T08:08:53.926Z,2202.00
2023-04-20T08:09:54.343Z,2149.00
2023-04-20T08:10:54.354Z,2133.00
2023-04-20T08:11:53.866Z,2154.00
2023-04-20T08:12:53.889Z,1981.00
2023-04-20T08:13:54.144Z,1561.00
2023-04-20T08:14:53.916Z,1488.00
2023-04-20T08:15:54.003Z,1190.00
2023-04-20T08:16:54.175Z,1094.00
2023-04-20T08:17:54.169Z,765.00
2023-04-20T08:18:54.226Z,503.00
2023-04-20T08:19:54.203Z,400.00
2023-04-20T08:20:54.308Z,449.00
2023-04-20T08:21:54.323Z,531.00
2023-04-20T08:22:54.368Z,557.00
2023-04-20T08:23:54.422Z,601.00
2023-04-20T08:24:54.471Z,667.00
2023-04-20T08:25:54.501Z,678.00
2023-04-20T08:26:54.514Z,664.00
2023-04-20T08:27:54.579Z,696.00
2023-04-20T08:28:54.658Z,809.00
2023-04-20T08:29:54.711Z,946.00
2023-04-20T08:30:54.757Z,988.00
2023-04-20T08:31:54.846Z,1065.00
2023-04-20T08:32:54.857Z,1115.00
2023-04-20T08:33:55.376Z,1154.00
2023-04-20T08:34:54.964Z,1199.00
2023-04-20T08:35:54.839Z,1230.00
2023-04-20T08:36:54.900Z,1266.00
2023-04-20T08:37:54.928Z,1290.00
2023-04-20T08:38:55.004Z,1349.00
2023-04-20T08:39:55.048Z,1365.00
2023-04-20T08:40:55.093Z,1399.00
2023-04-20T08:41:55.142Z,1440.00
2023-04-20T08:42:55.180Z,1472.00
2023-04-20T08:43:55.255Z,1492.00
2023-04-20T08:44:55.293Z,1544.00
2023-04-20T08:45:55.321Z,1571.00
2023-04-20T08:46:55.383Z,1601.00
2023-04-20T08:47:55.457Z,1635.00
2023-04-20T08:48:55.461Z,1659.00
2023-04-20T08:49:55.484Z,1691.00
2023-04-20T08:50:55.517Z,1710.00
2023-04-20T08:51:55.599Z,1732.00
2023-04-20T08:52:55.590Z,1753.00
2023-04-20T08:53:55.624Z,1810.00
2023-04-20T08:54:57.828Z,1823.00
2023-04-20T08:55:55.679Z,1839.00
2023-04-20T08:56:55.717Z,1863.00
2023-04-20T08:57:55.773Z,1908.00
2023-04-20T08:58:55.815Z,1922.00
2023-04-20T08:59:58.523Z,1951.00
2023-04-20T09:00:55.790Z,1967.00
2023-04-20T09:01:55.900Z,1998.00
2023-04-20T09:02:55.953Z,2020.00
2023-04-20T09:03:57.021Z,2034.00
2023-04-20T09:04:55.810Z,2081.00
2023-04-20T09:05:55.703Z,2085.00
2023-04-20T09:06:55.702Z,2122.00
2023-04-20T09:07:55.707Z,2126.00
2023-04-20T09:08:55.662Z,2160.00
2023-04-20T09:09:55.659Z,2174.00
2023-04-20T09:10:55.714Z,2193.00
2023-04-20T09:11:56.365Z,2209.00
2023-04-20T09:12:55.581Z,2231.00
2023-04-20T09:13:55.550Z,2242.00
2023-04-20T09:14:55.566Z,2281.00
2023-04-20T09:15:55.525Z,2254.00
2023-04-20T09:16:55.638Z,2252.00
2023-04-20T09:17:55.495Z,2248.00
2023-04-20T09:18:55.465Z,2252.00
2023-04-20T09:19:55.457Z,2243.00
2023-04-20T09:20:55.420Z,2240.00
2023-04-20T09:21:55.530Z,2240.00
2023-04-20T09:22:55.370Z,2239.00
2023-04-20T09:23:55.354Z,2253.00
2023-04-20T09:24:55.324Z,2241.00
2023-04-20T09:25:55.319Z,2249.00
2023-04-20T09:26:55.336Z,2235.00
2023-04-20T09:27:55.382Z,2235.00
2023-04-20T09:28:55.426Z,2232.00
2023-04-20T09:29:55.472Z,2228.00
2023-04-20T09:30:55.516Z,2219.00
2023-04-20T09:31:55.593Z,2219.00
2023-04-20T09:32:55.746Z,2223.00
2023-04-20T09:33:55.657Z,2208.00
2023-04-20T09:34:55.732Z,2209.00
2023-04-20T09:35:56.366Z,2212.00
2023-04-20T09:36:55.807Z,2200.00
2023-04-20T09:37:55.824Z,2196.00
2023-04-20T09:38:55.858Z,2198.00
2023-04-20T09:39:55.879Z,2208.00
2023-04-20T09:40:55.925Z,2185.00
2023-04-20T09:41:55.945Z,2170.00
2023-04-20T09:42:55.961Z,2173.00
2023-04-20T09:43:55.948Z,2170.00
2023-04-20T09:44:55.960Z,2170.00
2023-04-20T09:45:55.971Z,2164.00
2023-04-20T09:46:55.979Z,2151.00
2023-04-20T09:47:55.932Z,2159.00
2023-04-20T09:48:55.921Z,2149.00
2023-04-20T09:49:56.317Z,2153.00
2023-04-20T09:50:55.926Z,2143.00
2023-04-20T09:51:55.994Z,2123.00
2023-04-20T09:52:55.959Z,2134.00
2023-04-20T09:53:55.894Z,2136.00
2023-04-20T09:54:55.901Z,2117.00
2023-04-20T09:55:55.946Z,2109.00
2023-04-20T09:56:55.899Z,2116.00
2023-04-20T09:57:56.889Z,2109.00
2023-04-20T09:58:55.910Z,2101.00
2023-04-20T09:59:55.904Z,2100.00
2023-04-20T10:00:55.948Z,2099.00
2023-04-20T10:01:55.897Z,2087.00
2023-04-20T10:02:55.954Z,2093.00
2023-04-20T10:03:55.940Z,2086.00
2023-04-20T10:04:56.060Z,2068.00
2023-04-20T10:05:56.392Z,2085.00
2023-04-20T10:06:55.849Z,2072.00
2023-04-20T10:07:55.951Z,2083.00
2023-04-20T10:08:55.863Z,2062.00
2023-04-20T10:09:55.844Z,2066.00
2023-04-20T10:10:55.852Z,2054.00
2023-04-20T10:11:57.229Z,2058.00
2023-04-20T10:12:56.387Z,2059.00
2023-04-20T10:13:55.832Z,2041.00
2023-04-20T10:14:55.805Z,2062.00
2023-04-20T10:15:55.799Z,2048.00
2023-04-20T10:16:55.826Z,2034.00
2023-04-20T10:17:55.873Z,2044.00
2023-04-20T10:18:55.924Z,2041.00
2023-04-20T10:19:55.772Z,2015.00
2023-04-20T10:20:55.763Z,2005.00
2023-04-20T10:21:55.753Z,2011.00
2023-04-20T10:22:55.739Z,2011.00
2023-04-20T10:23:55.732Z,2005.00
2023-04-20T10:24:55.729Z,1994.00
2023-04-20T10:25:55.730Z,1989.00
2023-04-20T10:26:55.709Z,2001.00
2023-04-20T10:27:55.715Z,1988.00
2023-04-20T10:28:55.699Z,1966.00
2023-04-20T10:29:55.708Z,1986.00
2023-04-20T10:30:55.706Z,1970.00
2023-04-20T10:31:55.678Z,1962.00
2023-04-20T10:32:55.754Z,1948.00
2023-04-20T10:33:55.721Z,1945.00
2023-04-20T10:34:55.652Z,1954.00
2023-04-20T10:35:55.647Z,1937.00
2023-04-20T10:36:55.634Z,1931.00
2023-04-20T10:37:55.621Z,1946.00
2023-04-20T10:38:55.628Z,1936.00
2023-04-20T10:39:55.622Z,1938.00
2023-04-20T10:40:55.615Z,1924.00
2023-04-20T10:41:55.696Z,1924.00
2023-04-20T10:42:55.602Z,1925.00
2023-04-20T10:43:58.409Z,1903.00
2023-04-20T10:44:55.602Z,1904.00
2023-04-20T10:45:55.630Z,1906.00
2023-04-20T10:46:55.630Z,1905.00
2023-04-20T10:47:55.649Z,1906.00
2023-04-20T10:48:55.588Z,1906.00
2023-04-20T10:49:55.666Z,1895.00
2023-04-20T10:50:55.589Z,1886.00
2023-04-20T10:51:55.599Z,1894.00
2023-04-20T10:52:55.578Z,1882.00
2023-04-20T10:53:55.571Z,1878.00
2023-04-20T10:54:55.581Z,1870.00
2023-04-20T10:55:55.564Z,1892.00
2023-04-20T10:56:55.560Z,1859.00
2023-04-20T10:57:55.616Z,1874.00
2023-04-20T10:58:55.541Z,1879.00
2023-04-20T10:59:55.535Z,1863.00
2023-04-20T11:00:56.406Z,1858.00
2023-04-20T11:01:55.657Z,1870.00
2023-04-20T11:02:55.612Z,1871.00
2023-04-20T11:03:55.515Z,1847.00
2023-04-20T11:04:55.534Z,1830.00
2023-04-20T11:05:55.498Z,1839.00
2023-04-20T11:06:55.490Z,1838.00
2023-04-20T11:07:55.505Z,1844.00
2023-04-20T11:08:55.473Z,1819.00
2023-04-20T11:09:55.532Z,1825.00
2023-04-20T11:10:55.473Z,1818.00
2023-04-20T11:11:55.465Z,1805.00
2023-04-20T11:12:55.469Z,1826.00
2023-04-20T11:13:55.440Z,1810.00
2023-04-20T11:14:55.925Z,1802.00
2023-04-20T11:15:55.506Z,1814.00
2023-04-20T11:16:55.470Z,1815.00
2023-04-20T11:17:55.440Z,1807.00
2023-04-20T11:18:55.415Z,1785.00
2023-04-20T11:19:55.410Z,1787.00
2023-04-20T11:20:55.392Z,1773.00
2023-04-20T11:21:55.390Z,1775.00
2023-04-20T11:22:55.438Z,1785.00
2023-04-20T11:23:55.371Z,1780.00
2023-04-20T11:24:55.368Z,1765.00
2023-04-20T11:25:55.364Z,1770.00
2023-04-20T11:26:55.349Z,1774.00
2023-04-20T11:27:55.335Z,1764.00
2023-04-20T11:28:56.566Z,1753.00
2023-04-20T11:29:55.443Z,1759.00
2023-04-20T11:30:55.321Z,1756.00
2023-04-20T11:31:55.470Z,1747.00
2023-04-20T11:32:55.376Z,1751.00
2023-04-20T11:33:55.312Z,1741.00
2023-04-20T11:35:05.560Z,1724.00
2023-04-20T11:35:56.306Z,1726.00
2023-04-20T11:36:55.293Z,1730.00
2023-04-20T11:37:55.297Z,1731.00
2023-04-20T11:38:55.289Z,1737.00
2023-04-20T11:39:55.288Z,1743.00
2023-04-20T11:40:55.279Z,1745.00
2023-04-20T11:41:55.284Z,1726.00
2023-04-20T11:42:55.284Z,1709.00
2023-04-20T11:43:55.270Z,1709.00
2023-04-20T11:44:55.267Z,1724.00
2023-04-20T11:45:55.301Z,1708.00
2023-04-20T11:46:55.332Z,1701.00
2023-04-20T11:47:55.274Z,1704.00
2023-04-20T11:48:55.249Z,1705.00
2023-04-20T11:49:55.253Z,1679.00
2023-04-20T11:50:55.241Z,1699.00
2023-04-20T11:51:55.239Z,1697.00
2023-04-20T11:52:55.231Z,1689.00
2023-04-20T11:53:55.228Z,1682.00
2023-04-20T11:54:55.227Z,1687.00
2023-04-20T11:55:55.218Z,1690.00
2023-04-20T11:56:55.212Z,1678.00
2023-04-20T11:57:55.197Z,1691.00
2023-04-20T11:58:55.201Z,1656.00
2023-04-20T11:59:55.186Z,1670.00
2023-04-20T12:00:55.175Z,1662.00
2023-04-20T12:01:55.296Z,1668.00
2023-04-20T12:02:55.265Z,1653.00
2023-04-20T12:03:55.592Z,1638.00
2023-04-20T12:04:55.218Z,1656.00
2023-04-20T12:05:55.315Z,1629.00
2023-04-20T12:06:55.229Z,1633.00
2023-04-20T12:07:55.164Z,1625.00
2023-04-20T12:08:55.938Z,1637.00
2023-04-20T12:09:55.133Z,1628.00
2023-04-20T12:10:57.993Z,1623.00
2023-04-20T12:11:55.115Z,1637.00
2023-04-20T12:12:55.125Z,1627.00
2023-04-20T12:13:55.107Z,1624.00
2023-04-20T12:14:55.093Z,1619.00
2023-04-20T12:15:55.974Z,1609.00
2023-04-20T12:16:56.731Z,1603.00